Time;durP1;ratioP1;P1;durP2;ratioP2;P2;SDS_P1;SDS_P2;PMS_P1;PMS_P2;Temp;Humidity;BMP_temperature;BMP_pressure;BME280_temperature;BME280_humidity;BME280_pressure;Samples;Min_cycle;Max_cycle;Signal;HPM_P1;HPM_P2
2021/03/12 00:00:35;;;;;;;30.20;15.25;;;-3.00;68.50;;;;;;5052224;28;20485;-68
2021/03/12 00:03:01;;;;;;;32.70;17.40;;;-3.00;68.40;;;;;;5040874;28;20526;-69
2021/03/12 00:05:27;;;;;;;23.52;13.15;;;-3.00;68.50;;;;;;5051262;28;20049;-68
2021/03/12 00:07:56;;;;;;;33.95;16.75;;;-3.00;68.40;;;;;;5053755;28;20028;-68
2021/03/12 00:10:25;;;;;;;29.50;15.82;;;-3.00;68.40;;;;;;5038228;28;20036;-69
2021/03/12 00:12:51;;;;;;;31.63;16.88;;;-3.00;68.50;;;;;;5053741;28;20021;-70
2021/03/12 00:15:21;;;;;;;32.13;16.63;;;-3.00;68.50;;;;;;5052932;28;20108;-68
2021/03/12 00:17:49;;;;;;;29.65;15.40;;;-3.00;68.70;;;;;;5053705;28;20025;-68
2021/03/12 00:20:16;;;;;;;27.50;14.45;;;-3.00;68.80;;;;;;5052131;28;20044;-68
2021/03/12 00:22:42;;;;;;;31.48;14.75;;;-3.00;68.80;;;;;;5052817;28;20017;-68
2021/03/12 00:25:10;;;;;;;29.45;13.80;;;-3.00;68.50;;;;;;5053358;28;20103;-68
2021/03/12 00:27:36;;;;;;;25.25;12.60;;;-3.10;68.50;;;;;;5047512;28;20395;-68
2021/03/12 00:30:07;;;;;;;23.30;13.05;;;-3.10;68.70;;;;;;5044298;28;20021;-68
2021/03/12 00:32:33;;;;;;;27.27;11.77;;;-3.10;68.80;;;;;;5053528;28;20033;-68
2021/03/12 00:34:59;;;;;;;24.15;12.32;;;-3.10;69.00;;;;;;5051826;28;20369;-72
2021/03/12 00:37:24;;;;;;;25.55;13.35;;;-3.10;69.00;;;;;;5053361;28;20025;-69
2021/03/12 00:39:50;;;;;;;27.30;13.70;;;-3.10;69.00;;;;;;5051857;28;20477;-68
2021/03/12 00:42:16;;;;;;;24.75;13.18;;;-3.10;69.10;;;;;;5049517;28;20028;-69
2021/03/12 00:44:42;;;;;;;20.40;10.45;;;-3.10;69.10;;;;;;5040759;28;20041;-68
2021/03/12 00:47:08;;;;;;;22.45;11.65;;;-3.10;69.20;;;;;;5037199;28;20078;-69
2021/03/12 00:49:34;;;;;;;25.13;12.15;;;-3.10;69.10;;;;;;5036416;28;20036;-68
2021/03/12 00:52:00;;;;;;;21.00;10.75;;;-3.10;68.90;;;;;;5049773;28;20387;-68
2021/03/12 00:54:25;;;;;;;23.38;12.25;;;-3.20;69.10;;;;;;5034842;28;20037;-68
2021/03/12 00:56:51;;;;;;;19.10;10.73;;;-3.20;69.10;;;;;;5040232;28;20442;-70
2021/03/12 00:59:17;;;;;;;28.23;12.10;;;-3.20;69.20;;;;;;5046794;28;20053;-68
2021/03/12 01:01:42;;;;;;;21.15;11.30;;;-3.20;69.20;;;;;;5035824;28;20468;-68
2021/03/12 01:04:08;;;;;;;22.40;11.25;;;-3.20;69.20;;;;;;5041682;28;20478;-68
2021/03/12 01:06:34;;;;;;;20.88;11.10;;;-3.20;69.20;;;;;;5043121;28;20069;-68
2021/03/12 01:09:00;;;;;;;19.08;10.38;;;-3.30;69.20;;;;;;5037097;28;20356;-69
2021/03/12 01:11:26;;;;;;;20.67;10.40;;;-3.30;69.30;;;;;;5043757;28;20032;-69
2021/03/12 01:13:52;;;;;;;18.65;10.68;;;-3.30;69.30;;;;;;5041584;28;20021;-72
2021/03/12 01:16:19;;;;;;;23.42;12.05;;;-3.30;69.20;;;;;;5036185;28;20379;-68
2021/03/12 01:18:44;;;;;;;20.40;11.10;;;-3.30;69.40;;;;;;5046647;28;20033;-68
2021/03/12 01:21:10;;;;;;;25.52;11.18;;;-3.40;69.30;;;;;;5041498;28;20040;-68
2021/03/12 01:23:36;;;;;;;20.17;10.02;;;-3.40;69.40;;;;;;5042336;28;20109;-68
2021/03/12 01:26:02;;;;;;;22.33;10.23;;;-3.40;69.40;;;;;;5049527;28;20036;-68
2021/03/12 01:28:27;;;;;;;20.10;11.43;;;-3.50;69.40;;;;;;5043982;28;20108;-68
2021/03/12 01:30:53;;;;;;;21.42;11.82;;;-3.50;69.70;;;;;;5037036;28;20606;-69
2021/03/12 01:33:19;;;;;;;22.20;11.32;;;-3.50;69.60;;;;;;5053237;28;20380;-68
2021/03/12 01:35:45;;;;;;;22.45;11.88;;;-3.50;69.50;;;;;;5056609;28;20103;-68
2021/03/12 01:38:11;;;;;;;23.33;11.63;;;-3.50;69.40;;;;;;5055528;28;20025;-68
2021/03/12 01:40:48;;;;;;;26.42;12.73;;;-3.50;69.40;;;;;;5056298;28;20091;-68
2021/03/12 01:43:14;;;;;;;27.35;13.80;;;-3.50;69.50;;;;;;5042582;28;20506;-68
2021/03/12 01:45:46;;;;;;;28.67;14.63;;;-3.50;69.40;;;;;;5056489;28;20033;-68
2021/03/12 01:48:14;;;;;;;23.58;11.02;;;-3.50;69.30;;;;;;5054740;28;20021;-68
2021/03/12 01:50:43;;;;;;;31.75;12.50;;;-3.50;69.30;;;;;;5055279;28;20025;-68
2021/03/12 01:53:14;;;;;;;22.30;11.57;;;-3.50;69.30;;;;;;5054422;28;20554;-69
2021/03/12 01:55:40;;;;;;;22.77;12.43;;;-3.50;69.20;;;;;;5055559;28;20037;-68
2021/03/12 01:58:07;;;;;;;19.98;9.98;;;-3.60;69.20;;;;;;5056117;28;20083;-68
2021/03/12 02:00:33;;;;;;;21.35;10.93;;;-3.60;69.30;;;;;;5055141;28;20399;-69
2021/03/12 02:02:59;;;;;;;18.30;9.85;;;-3.60;69.30;;;;;;5054521;28;20454;-75
2021/03/12 02:05:25;;;;;;;16.75;9.77;;;-3.60;69.40;;;;;;5056166;28;20048;-69
2021/03/12 02:07:51;;;;;;;19.02;8.68;;;-3.60;69.30;;;;;;5055954;28;20104;-69
2021/03/12 02:10:21;;;;;;;14.48;7.90;;;-3.60;69.30;;;;;;5054637;28;20108;-68
2021/03/12 02:13:24;;;;;;;17.00;7.55;;;-3.50;69.10;;;;;;5054769;28;20032;-68
2021/03/12 02:16:01;;;;;;;18.20;8.05;;;-3.50;68.80;;;;;;5043633;28;20033;-68
2021/03/12 02:18:33;;;;;;;16.27;9.40;;;-3.50;68.40;;;;;;5056012;28;20398;-68
2021/03/12 02:21:11;;;;;;;17.45;9.57;;;-3.50;68.30;;;;;;5055632;28;20017;-71
2021/03/12 02:23:52;;;;;;;16.98;8.60;;;-3.50;67.90;;;;;;5055378;28;20035;-68
2021/03/12 02:26:39;;;;;;;18.40;7.75;;;-3.60;67.70;;;;;;5055352;28;20025;-69
2021/03/12 02:29:07;;;;;;;16.05;9.35;;;-3.60;67.60;;;;;;5041564;28;20036;-68
2021/03/12 02:31:35;;;;;;;20.40;8.50;;;-3.60;67.40;;;;;;5042986;28;20464;-68
2021/03/12 02:34:03;;;;;;;16.83;9.13;;;-3.60;67.20;;;;;;5049099;28;20028;-68
2021/03/12 02:36:31;;;;;;;13.93;6.43;;;-3.70;67.00;;;;;;5054511;28;20033;-68
2021/03/12 02:38:58;;;;;;;17.50;8.90;;;-3.70;66.90;;;;;;5044722;28;20022;-68
2021/03/12 02:41:28;;;;;;;14.80;7.78;;;-3.70;66.90;;;;;;5055768;28;20059;-68
2021/03/12 02:43:54;;;;;;;13.73;7.78;;;-3.70;66.80;;;;;;5054610;28;20025;-68
2021/03/12 02:46:21;;;;;;;14.77;7.30;;;-3.70;66.60;;;;;;5041182;28;20036;-68
2021/03/12 02:48:49;;;;;;;17.27;8.45;;;-3.70;66.30;;;;;;5055433;28;20025;-68
2021/03/12 02:51:16;;;;;;;13.57;7.18;;;-3.80;66.40;;;;;;5053581;28;20021;-65
2021/03/12 02:53:43;;;;;;;18.08;9.75;;;-3.70;66.40;;;;;;5055513;28;20092;-68
2021/03/12 02:56:09;;;;;;;13.02;6.13;;;-3.70;66.30;;;;;;5055181;28;20116;-68
2021/03/12 02:58:36;;;;;;;17.80;8.38;;;-3.70;66.30;;;;;;5055099;28;20025;-68
2021/03/12 03:01:04;;;;;;;15.55;8.00;;;-3.70;66.00;;;;;;5053904;28;20029;-68
2021/03/12 03:03:30;;;;;;;17.17;9.15;;;-3.70;65.90;;;;;;5042401;28;20021;-68
2021/03/12 03:05:56;;;;;;;15.32;7.88;;;-3.70;65.70;;;;;;5055056;28;20161;-68
2021/03/12 03:08:22;;;;;;;18.15;9.32;;;-3.70;65.60;;;;;;5054820;28;20013;-68
2021/03/12 03:10:48;;;;;;;20.48;9.75;;;-3.70;65.50;;;;;;5053885;28;20049;-68
2021/03/12 03:13:14;;;;;;;17.70;8.48;;;-3.80;65.60;;;;;;5054376;28;20052;-68
2021/03/12 03:15:41;;;;;;;13.43;7.05;;;-3.80;65.60;;;;;;5054802;28;20087;-68
2021/03/12 03:18:08;;;;;;;16.50;8.02;;;-3.70;65.40;;;;;;5054387;28;20067;-68
2021/03/12 03:20:35;;;;;;;12.98;7.82;;;-3.80;65.30;;;;;;5053318;28;20175;-69
2021/03/12 03:23:01;;;;;;;16.55;9.02;;;-3.90;65.00;;;;;;5054583;28;20021;-69
2021/03/12 03:25:26;;;;;;;17.48;9.52;;;-3.90;65.10;;;;;;5052922;28;20036;-68
2021/03/12 03:27:52;;;;;;;18.27;10.20;;;-4.00;65.00;;;;;;5053313;28;20523;-68
2021/03/12 03:30:18;;;;;;;15.20;7.30;;;-4.00;65.20;;;;;;5039111;28;20439;-68
2021/03/12 03:32:44;;;;;;;16.67;8.20;;;-4.00;65.20;;;;;;5054516;28;20537;-68
2021/03/12 03:35:11;;;;;;;13.80;7.50;;;-4.10;65.10;;;;;;5053682;28;20032;-68
2021/03/12 03:37:38;;;;;;;16.35;8.80;;;-4.10;65.10;;;;;;5053029;28;20115;-68
2021/03/12 03:40:09;;;;;;;19.25;10.00;;;-4.10;65.10;;;;;;5054448;28;20108;-68
2021/03/12 03:42:36;;;;;;;17.50;9.32;;;-4.10;64.90;;;;;;5052864;28;20047;-68
2021/03/12 03:45:08;;;;;;;17.27;9.23;;;-4.10;64.70;;;;;;5053940;28;20092;-69
2021/03/12 03:47:35;;;;;;;16.13;7.90;;;-4.00;64.60;;;;;;5053856;28;20033;-69
2021/03/12 03:50:01;;;;;;;15.63;7.50;;;-4.10;64.30;;;;;;5054079;28;20021;-68
2021/03/12 03:52:27;;;;;;;18.33;9.38;;;-4.10;64.20;;;;;;5052805;28;20047;-69
2021/03/12 03:54:54;;;;;;;13.32;8.13;;;-4.10;64.20;;;;;;5054149;28;20055;-68
2021/03/12 03:57:24;;;;;;;16.88;7.93;;;-4.10;63.90;;;;;;5052533;28;20029;-68
2021/03/12 03:59:50;;;;;;;11.38;6.60;;;-4.10;63.70;;;;;;5054012;28;20028;-68
2021/03/12 04:02:18;;;;;;;18.98;8.35;;;-4.10;63.50;;;;;;5052896;28;20337;-68
2021/03/12 04:04:46;;;;;;;12.20;6.38;;;-4.10;63.10;;;;;;5053380;28;20029;-69
2021/03/12 04:07:13;;;;;;;22.42;10.68;;;-4.00;62.80;;;;;;5053709;28;20021;-66
2021/03/12 04:09:40;;;;;;;12.05;6.85;;;-4.00;62.70;;;;;;5039223;28;20021;-66
2021/03/12 04:12:08;;;;;;;18.60;10.10;;;-4.10;62.60;;;;;;5038227;28;20435;-67
2021/03/12 04:14:34;;;;;;;21.17;9.20;;;-4.10;62.60;;;;;;5043255;28;20115;-67
2021/03/12 04:17:01;;;;;;;16.58;8.80;;;-4.10;62.20;;;;;;5042904;28;20423;-67
2021/03/12 04:19:27;;;;;;;18.38;10.48;;;-4.10;62.20;;;;;;5040883;28;20025;-68
2021/03/12 04:21:53;;;;;;;19.45;9.68;;;-4.10;62.10;;;;;;5045303;28;20115;-66
2021/03/12 04:24:19;;;;;;;18.10;9.23;;;-4.10;62.00;;;;;;5041868;28;20032;-66
2021/03/12 04:26:45;;;;;;;24.35;11.82;;;-4.10;62.20;;;;;;5041614;28;20041;-66
2021/03/12 04:29:12;;;;;;;25.23;11.65;;;-4.10;62.20;;;;;;5043323;28;20043;-67
2021/03/12 04:31:38;;;;;;;20.83;10.60;;;-4.10;62.30;;;;;;5040592;28;20021;-66
2021/03/12 04:34:04;;;;;;;16.52;9.20;;;-4.00;62.50;;;;;;5043186;28;20108;-67
2021/03/12 04:36:30;;;;;;;17.98;8.50;;;-4.00;62.20;;;;;;5041347;28;20384;-67
2021/03/12 04:38:57;;;;;;;18.10;9.00;;;-4.00;62.40;;;;;;5041286;28;20021;-66
2021/03/12 04:41:22;;;;;;;21.40;10.13;;;-4.00;62.30;;;;;;5043812;28;20067;-66
2021/03/12 04:43:48;;;;;;;16.70;9.30;;;-4.00;62.40;;;;;;5040385;28;20018;-67
2021/03/12 04:46:14;;;;;;;24.02;9.85;;;-4.00;62.20;;;;;;5043869;28;20021;-67
2021/03/12 04:48:41;;;;;;;28.60;12.18;;;-4.00;62.60;;;;;;5046953;28;20037;-65
2021/03/12 04:51:10;;;;;;;21.45;9.95;;;-4.10;61.90;;;;;;5038638;28;20519;-65
2021/03/12 04:53:38;;;;;;;23.63;11.05;;;-4.10;62.00;;;;;;5043227;28;20398;-66
2021/03/12 04:56:05;;;;;;;22.58;10.68;;;-4.10;62.10;;;;;;5035794;28;20132;-66
2021/03/12 04:58:31;;;;;;;34.15;15.05;;;-4.10;62.00;;;;;;5044250;28;20033;-66
2021/03/12 05:00:57;;;;;;;21.02;10.50;;;-4.10;62.00;;;;;;5047174;28;20036;-66
2021/03/12 05:03:23;;;;;;;22.00;9.02;;;-4.10;62.10;;;;;;5038206;28;20025;-66
2021/03/12 05:05:50;;;;;;;20.48;10.82;;;-4.10;62.20;;;;;;5046779;28;20061;-68
2021/03/12 05:08:16;;;;;;;20.45;9.77;;;-4.10;61.90;;;;;;5044897;28;20437;-67
2021/03/12 05:11:07;;;;;;;19.25;10.55;;;-4.10;61.90;;;;;;5051583;28;20086;-66
2021/03/12 05:13:33;;;;;;;18.77;8.57;;;-4.10;61.90;;;;;;5038887;28;20395;-68
2021/03/12 05:15:59;;;;;;;20.63;10.25;;;-4.10;61.80;;;;;;5046080;28;20025;-68
2021/03/12 05:18:24;;;;;;;18.95;9.00;;;-4.10;61.50;;;;;;5046048;28;20036;-70
2021/03/12 05:20:51;;;;;;;24.48;9.93;;;-4.10;61.50;;;;;;5052170;28;20056;-70
2021/03/12 05:23:18;;;;;;;15.60;9.57;;;-4.10;61.50;;;;;;5048015;28;20025;-69
2021/03/12 05:25:44;;;;;;;18.23;9.52;;;-4.10;61.40;;;;;;5047134;28;20037;-68
2021/03/12 05:28:10;;;;;;;25.17;10.15;;;-4.10;61.00;;;;;;5047915;28;20052;-69
2021/03/12 05:30:36;;;;;;;18.77;8.90;;;-4.10;61.00;;;;;;5052468;28;20091;-68
2021/03/12 05:33:01;;;;;;;18.38;9.38;;;-4.10;61.20;;;;;;5047902;28;20024;-69
2021/03/12 05:35:27;;;;;;;24.08;10.13;;;-4.10;61.00;;;;;;5052317;28;20021;-68
2021/03/12 05:37:53;;;;;;;13.73;7.88;;;-4.00;61.40;;;;;;5051568;28;20057;-68
2021/03/12 05:40:19;;;;;;;21.98;12.23;;;-4.00;61.10;;;;;;5047093;28;20021;-67
2021/03/12 05:42:47;;;;;;;26.15;11.55;;;-4.00;60.70;;;;;;5052036;28;20105;-67
2021/03/12 05:45:12;;;;;;;26.02;12.25;;;-3.90;60.90;;;;;;5050870;28;20032;-67
2021/03/12 05:47:38;;;;;;;23.98;9.70;;;-3.80;61.30;;;;;;5037986;28;20092;-67
2021/03/12 05:50:06;;;;;;;16.40;9.60;;;-3.80;61.20;;;;;;5042218;28;20034;-67
2021/03/12 05:52:32;;;;;;;24.80;9.98;;;-3.70;60.80;;;;;;5042088;28;20026;-67
2021/03/12 05:55:00;;;;;;;16.42;6.90;;;-3.60;60.90;;;;;;5042518;28;20025;-67
2021/03/12 05:57:28;;;;;;;16.80;7.25;;;-3.50;60.80;;;;;;5033134;28;20029;-69
2021/03/12 05:59:54;;;;;;;35.78;8.73;;;-3.40;60.30;;;;;;5046151;28;20372;-68
2021/03/12 06:02:20;;;;;;;18.23;9.07;;;-3.40;60.00;;;;;;5032596;28;20029;-68
2021/03/12 06:04:46;;;;;;;17.77;8.80;;;-3.40;59.80;;;;;;5035559;28;20064;-68
2021/03/12 06:07:16;;;;;;;17.15;9.57;;;-3.40;59.20;;;;;;5043667;28;20029;-69
2021/03/12 06:09:46;;;;;;;17.13;8.27;;;-3.30;59.50;;;;;;5036047;28;20041;-68
2021/03/12 06:12:12;;;;;;;20.40;8.32;;;-3.30;58.90;;;;;;5045360;28;20036;-69
2021/03/12 06:14:56;;;;;;;11.95;7.18;;;-3.30;58.40;;;;;;5045235;28;20537;-67
2021/03/12 06:17:51;;;;;;;18.25;8.90;;;-3.30;58.10;;;;;;5040467;28;20111;-74
2021/03/12 06:20:18;;;;;;;18.15;7.47;;;-3.30;57.90;;;;;;5039245;28;20041;-68
2021/03/12 06:22:55;;;;;;;14.85;7.75;;;-3.20;57.50;;;;;;5048447;28;20032;-67
2021/03/12 06:25:23;;;;;;;15.68;6.72;;;-3.20;57.90;;;;;;5048750;28;20037;-68
2021/03/12 06:27:49;;;;;;;15.60;8.13;;;-3.20;57.30;;;;;;5046551;28;20478;-69
2021/03/12 06:30:17;;;;;;;15.00;8.48;;;-3.10;57.20;;;;;;5042524;28;20044;-65
2021/03/12 06:32:46;;;;;;;17.42;9.25;;;-3.00;56.50;;;;;;5048551;28;20108;-66
2021/03/12 06:35:17;;;;;;;15.07;7.90;;;-2.90;56.20;;;;;;5039368;28;20032;-66
2021/03/12 06:37:47;;;;;;;18.48;8.65;;;-2.80;56.10;;;;;;5044096;28;20031;-66
2021/03/12 06:40:23;;;;;;;15.75;7.03;;;-2.50;56.30;;;;;;5052817;28;20040;-67
2021/03/12 06:43:06;;;;;;;12.88;7.72;;;-2.30;55.20;;;;;;5052506;28;20475;-65
2021/03/12 06:45:42;;;;;;;10.68;5.88;;;-2.10;54.20;;;;;;5053845;28;20032;-66
2021/03/12 06:48:25;;;;;;;;;;;-2.10;52.70;;;;;;5047027;28;20507;-65
2021/03/12 06:50:53;;;;;;;13.93;6.75;;;-2.10;51.30;;;;;;5048289;28;19909;-67
2021/03/12 06:53:26;;;;;;;11.82;5.05;;;-2.20;51.50;;;;;;5049132;28;20068;-65
2021/03/12 06:55:53;;;;;;;13.68;6.38;;;-2.20;51.60;;;;;;5052785;28;20112;-65
2021/03/12 06:58:19;;;;;;;13.02;6.18;;;-2.30;51.80;;;;;;5050346;28;20476;-65
2021/03/12 07:00:46;;;;;;;8.98;5.22;;;-2.30;51.40;;;;;;5047365;28;20033;-67
2021/03/12 07:03:27;;;;;;;11.23;5.85;;;-2.30;51.30;;;;;;5052383;28;20108;-70
2021/03/12 07:06:16;;;;;;;17.30;6.90;;;-2.40;51.10;;;;;;5052741;28;20403;-71
2021/03/12 07:08:46;;;;;;;14.77;7.40;;;-2.40;51.20;;;;;;5042225;28;20375;-71
2021/03/12 07:11:21;;;;;;;9.82;4.90;;;-2.40;51.10;;;;;;5049000;28;20108;-71
2021/03/12 07:13:55;;;;;;;14.98;6.80;;;-2.40;50.60;;;;;;5047635;28;20030;-70
2021/03/12 07:16:21;;;;;;;22.48;12.32;;;-2.30;51.00;;;;;;5048713;28;20467;-67
2021/03/12 07:18:47;;;;;;;14.23;7.35;;;-2.20;51.60;;;;;;5048256;28;20452;-68
2021/03/12 07:21:16;;;;;;;11.35;5.90;;;-2.10;51.30;;;;;;5045515;28;20053;-64
2021/03/12 07:23:44;;;;;;;9.30;4.88;;;-2.00;50.90;;;;;;5053708;28;20017;-70
2021/03/12 07:26:11;;;;;;;8.90;4.30;;;-2.00;50.10;;;;;;5046155;28;20035;-65
2021/03/12 07:28:40;;;;;;;14.68;5.72;;;-2.00;49.90;;;;;;5045450;28;20029;-65
2021/03/12 07:31:06;;;;;;;11.07;5.25;;;-1.90;49.20;;;;;;5048504;28;20049;-71
2021/03/12 07:33:35;;;;;;;9.82;5.03;;;-1.90;49.10;;;;;;5048637;28;20047;-70
2021/03/12 07:36:05;;;;;;;15.90;6.00;;;-1.80;48.80;;;;;;5040294;28;20099;-69
2021/03/12 07:38:34;;;;;;;7.10;4.97;;;-1.80;48.70;;;;;;5038399;28;20120;-67
2021/03/12 07:41:04;;;;;;;10.90;4.70;;;-1.80;48.10;;;;;;5034270;28;20407;-68
2021/03/12 07:43:34;;;;;;;9.55;5.40;;;-1.70;48.30;;;;;;5046342;28;20032;-66
2021/03/12 07:46:01;;;;;;;9.95;4.38;;;-1.70;47.70;;;;;;5051006;28;20117;-65
2021/03/12 07:48:29;;;;;;;12.40;4.50;;;-1.60;47.70;;;;;;5054087;28;20078;-64
2021/03/12 07:51:21;;;;;;;8.57;4.20;;;-1.60;47.60;;;;;;5053920;28;20116;-64
2021/03/12 07:53:49;;;;;;;8.23;4.47;;;-1.50;47.70;;;;;;5053639;28;20033;-64
2021/03/12 07:56:16;;;;;;;10.70;5.43;;;-1.50;46.80;;;;;;5043987;28;20029;-64
2021/03/12 07:58:50;;;;;;;7.97;4.53;;;-1.60;46.70;;;;;;5054050;28;20029;-64
2021/03/12 08:01:17;;;;;;;6.70;4.32;;;-1.60;46.70;;;;;;5053446;28;20271;-65
2021/03/12 08:03:43;;;;;;;7.50;4.55;;;-1.70;46.50;;;;;;5053963;28;20032;-67
2021/03/12 08:06:29;;;;;;;13.20;5.82;;;-1.70;47.00;;;;;;5053164;28;20049;-65
2021/03/12 08:08:55;;;;;;;9.82;4.63;;;-1.60;47.40;;;;;;5053736;28;20151;-64
2021/03/12 08:11:38;;;;;;;9.65;5.28;;;-1.50;47.30;;;;;;5051860;28;20119;-64
2021/03/12 08:14:17;;;;;;;8.85;5.43;;;-1.50;46.90;;;;;;5054692;28;20056;-64
2021/03/12 08:16:58;;;;;;;7.25;4.50;;;-1.40;46.90;;;;;;5064282;28;20090;-65
2021/03/12 08:19:37;;;;;;;12.18;5.32;;;-1.40;47.00;;;;;;5052882;28;20021;-64
2021/03/12 08:22:26;;;;;;;6.60;3.75;;;-1.30;47.70;;;;;;5051287;28;20025;-65
2021/03/12 08:24:52;;;;;;;9.60;4.43;;;-1.10;47.70;;;;;;5052471;28;20098;-65
2021/03/12 08:27:40;;;;;;;6.80;4.28;;;-0.90;47.70;;;;;;5051249;28;20474;-66
2021/03/12 08:30:07;;;;;;;12.77;6.05;;;-0.80;47.10;;;;;;5052528;28;20573;-65
2021/03/12 08:32:45;;;;;;;19.25;8.45;;;-0.80;47.40;;;;;;5051929;28;20036;-64
2021/03/12 08:35:32;;;;;;;13.18;5.53;;;-0.60;47.60;;;;;;5038940;28;20071;-65
2021/03/12 08:37:58;;;;;;;16.33;7.15;;;-0.50;47.20;;;;;;5052035;28;20028;-64
2021/03/12 08:40:25;;;;;;;15.25;7.18;;;-0.40;47.50;;;;;;5052050;28;20056;-64
2021/03/12 08:43:07;;;;;;;12.32;4.53;;;-0.40;46.60;;;;;;5052219;28;20021;-65
2021/03/12 08:45:49;;;;;;;14.05;5.00;;;-0.40;46.10;;;;;;5053120;28;20036;-65
2021/03/12 08:48:42;;;;;;;11.35;5.85;;;-0.30;46.90;;;;;;5041195;28;20159;-63
2021/03/12 08:51:10;;;;;;;8.70;4.53;;;-0.20;46.30;;;;;;5050157;28;20082;-64
2021/03/12 08:53:40;;;;;;;9.77;4.97;;;-0.20;46.00;;;;;;5051683;28;20545;-64
2021/03/12 08:56:08;;;;;;;12.13;4.68;;;0.10;47.10;;;;;;5052388;28;20028;-64
2021/03/12 08:58:36;;;;;;;11.13;4.72;;;0.40;46.40;;;;;;5053043;28;20017;-63
2021/03/12 09:01:12;;;;;;;12.50;6.55;;;0.70;46.10;;;;;;5052325;28;20071;-64
2021/03/12 09:03:38;;;;;;;11.02;5.78;;;1.00;46.10;;;;;;5051588;28;20119;-64
2021/03/12 09:06:05;;;;;;;11.70;6.32;;;1.20;45.20;;;;;;5051032;28;20052;-65
2021/03/12 09:08:31;;;;;;;9.07;4.20;;;1.30;44.30;;;;;;5052701;28;20087;-64
2021/03/12 09:10:58;;;;;;;8.88;4.22;;;1.40;44.30;;;;;;5052951;28;20056;-63
2021/03/12 09:13:27;;;;;;;14.30;5.60;;;1.50;43.80;;;;;;5052403;28;20470;-64
2021/03/12 09:15:53;;;;;;;12.80;5.22;;;1.60;44.00;;;;;;5052737;28;20463;-65
2021/03/12 09:18:23;;;;;;;22.83;9.18;;;1.80;43.50;;;;;;5051077;28;20111;-63
2021/03/12 09:20:57;;;;;;;11.23;5.35;;;2.10;43.70;;;;;;5052420;28;20471;-65
2021/03/12 09:23:52;;;;;;;11.70;5.20;;;2.40;43.00;;;;;;5050730;28;20125;-63
2021/03/12 09:26:23;;;;;;;21.37;9.93;;;2.60;42.60;;;;;;5051270;28;20121;-63
2021/03/12 09:28:52;;;;;;;21.08;7.75;;;2.60;42.30;;;;;;5052333;28;20122;-64
2021/03/12 09:31:19;;;;;;;18.45;7.97;;;2.40;41.90;;;;;;5052186;28;20025;-65
2021/03/12 09:33:50;;;;;;;14.68;7.38;;;2.20;42.60;;;;;;5050882;28;20044;-64
2021/03/12 09:36:35;;;;;;;15.00;6.53;;;2.20;43.10;;;;;;5051177;28;20029;-64
2021/03/12 09:39:09;;;;;;;18.13;6.85;;;2.20;43.20;;;;;;5051503;28;20056;-65
2021/03/12 09:41:36;;;;;;;11.82;5.93;;;2.20;43.40;;;;;;5051232;28;20372;-64
2021/03/12 09:44:12;;;;;;;16.17;6.95;;;2.20;43.90;;;;;;5050588;28;20044;-64
2021/03/12 09:46:42;;;;;;;12.13;6.30;;;2.20;43.70;;;;;;5052360;28;20135;-64
2021/03/12 09:49:23;;;;;;;15.30;6.30;;;2.20;44.00;;;;;;5051765;28;20040;-65
2021/03/12 09:51:55;;;;;;;10.77;5.10;;;2.30;43.80;;;;;;5052295;28;20029;-64
2021/03/12 09:54:22;;;;;;;10.90;5.57;;;2.10;43.60;;;;;;5054313;28;20032;-64
2021/03/12 09:56:53;;;;;;;13.90;7.15;;;2.00;44.00;;;;;;5055243;28;20029;-64
2021/03/12 09:59:26;;;;;;;11.43;5.50;;;1.90;44.60;;;;;;5055500;28;20507;-65
2021/03/12 10:01:52;;;;;;;14.98;8.02;;;1.90;45.10;;;;;;5056325;28;20040;-64
2021/03/12 10:04:26;;;;;;;11.27;6.35;;;1.80;45.10;;;;;;5056129;28;20029;-64
2021/03/12 10:07:07;;;;;;;9.45;5.20;;;1.70;45.30;;;;;;5041617;28;20037;-64
2021/03/12 10:09:34;;;;;;;9.63;5.00;;;1.60;45.50;;;;;;5054658;28;20406;-64
2021/03/12 10:12:01;;;;;;;12.50;4.97;;;1.40;45.80;;;;;;5054829;28;20017;-64
2021/03/12 10:14:38;;;;;;;11.60;5.65;;;1.30;46.30;;;;;;5055941;28;20028;-64
2021/03/12 10:17:17;;;;;;;9.80;5.07;;;1.20;46.80;;;;;;5041082;28;20103;-64
2021/03/12 10:20:02;;;;;;;18.45;5.50;;;1.20;47.20;;;;;;5054412;28;20039;-65
2021/03/12 10:22:34;;;;;;;11.52;5.40;;;1.10;47.50;;;;;;5055734;28;20025;-64
2021/03/12 10:25:11;;;;;;;15.77;5.50;;;1.10;48.00;;;;;;5053696;28;20123;-65
2021/03/12 10:27:42;;;;;;;14.18;7.22;;;1.20;48.50;;;;;;5054166;28;20033;-63
2021/03/12 10:30:11;;;;;;;19.02;8.77;;;1.10;48.20;;;;;;5053953;28;20025;-65
2021/03/12 10:32:51;;;;;;;15.13;5.00;;;1.00;48.20;;;;;;5054376;28;20164;-64
2021/03/12 10:35:25;;;;;;;14.38;7.15;;;0.90;48.70;;;;;;5053753;28;20029;-64
2021/03/12 10:37:54;;;;;;;11.38;4.85;;;0.90;49.10;;;;;;5055504;28;20455;-64
2021/03/12 10:40:21;;;;;;;12.95;6.30;;;0.90;49.40;;;;;;5055286;28;20036;-64
2021/03/12 10:42:47;;;;;;;24.33;9.48;;;0.90;49.80;;;;;;5053893;28;20059;-64
2021/03/12 10:45:23;;;;;;;12.10;6.68;;;0.90;49.70;;;;;;5053877;28;20060;-64
2021/03/12 10:48:01;;;;;;;23.15;8.40;;;0.80;49.80;;;;;;5053653;28;20078;-64
2021/03/12 10:50:29;;;;;;;9.10;5.40;;;0.80;50.30;;;;;;5053929;28;20021;-64
2021/03/12 10:53:14;;;;;;;11.02;5.25;;;0.70;50.40;;;;;;5053885;28;20021;-64
2021/03/12 10:55:45;;;;;;;12.70;5.97;;;0.60;50.60;;;;;;5054184;28;20121;-64
2021/03/12 10:58:38;;;;;;;10.63;4.97;;;0.60;50.90;;;;;;5054950;28;20412;-64
2021/03/12 11:01:12;;;;;;;9.98;5.43;;;0.50;51.10;;;;;;5051967;28;20483;-65
2021/03/12 11:03:39;;;;;;;9.73;5.05;;;0.40;51.50;;;;;;5055241;28;20111;-64
2021/03/12 11:06:05;;;;;;;13.55;6.45;;;0.40;51.90;;;;;;5053547;28;20487;-65
2021/03/12 11:08:31;;;;;;;13.75;6.22;;;0.40;52.10;;;;;;5055011;28;20036;-64
2021/03/12 11:10:58;;;;;;;17.85;7.38;;;0.40;52.00;;;;;;5054947;28;20036;-64
2021/03/12 11:13:24;;;;;;;10.73;5.47;;;0.40;52.20;;;;;;5053222;28;20070;-64
2021/03/12 11:15:50;;;;;;;12.65;5.35;;;0.30;51.90;;;;;;5054999;28;20116;-64
2021/03/12 11:18:16;;;;;;;10.35;5.88;;;0.30;52.10;;;;;;5053282;28;20029;-64
2021/03/12 11:20:42;;;;;;;14.27;6.22;;;0.20;52.30;;;;;;5054842;28;20124;-64
2021/03/12 11:23:08;;;;;;;12.63;5.57;;;0.20;52.50;;;;;;5054126;28;20494;-64
2021/03/12 11:25:34;;;;;;;15.82;7.82;;;0.20;52.50;;;;;;5053397;28;20483;-64
2021/03/12 11:28:02;;;;;;;12.13;5.70;;;0.10;52.70;;;;;;5054448;28;20052;-65
2021/03/12 11:30:27;;;;;;;10.20;5.78;;;0.20;53.00;;;;;;5054269;28;20028;-65
2021/03/12 11:32:53;;;;;;;9.13;5.32;;;0.20;53.40;;;;;;5053237;28;20377;-65
2021/03/12 11:35:19;;;;;;;10.20;6.20;;;0.20;53.40;;;;;;5053397;28;20098;-65
2021/03/12 11:37:45;;;;;;;15.15;6.47;;;0.20;53.40;;;;;;5045368;28;20029;-65
2021/03/12 11:40:13;;;;;;;11.07;5.10;;;0.20;53.50;;;;;;5048332;28;20094;-65
2021/03/12 11:42:39;;;;;;;11.00;5.90;;;0.20;53.60;;;;;;5052654;28;20017;-65
2021/03/12 11:45:08;;;;;;;11.60;5.97;;;0.20;53.80;;;;;;5054124;28;20482;-64
2021/03/12 11:47:34;;;;;;;14.32;5.50;;;0.20;54.10;;;;;;5052842;28;20391;-65
2021/03/12 11:49:59;;;;;;;16.77;5.95;;;0.20;54.10;;;;;;5052426;28;20028;-64
2021/03/12 11:52:26;;;;;;;13.13;6.00;;;0.20;54.50;;;;;;5052913;28;20025;-65
2021/03/12 11:54:55;;;;;;;16.38;6.15;;;0.20;54.40;;;;;;5040583;28;20367;-65
2021/03/12 11:57:24;;;;;;;13.40;5.97;;;0.20;54.50;;;;;;5053676;28;20078;-63
2021/03/12 11:59:51;;;;;;;9.40;5.60;;;0.30;54.60;;;;;;5054050;28;20028;-64
2021/03/12 12:02:17;;;;;;;12.48;5.78;;;0.30;54.60;;;;;;5052859;28;20029;-63
2021/03/12 12:04:43;;;;;;;7.75;4.95;;;0.30;54.40;;;;;;5052179;28;20155;-63
2021/03/12 12:07:10;;;;;;;13.27;6.63;;;0.30;54.40;;;;;;5053794;28;20491;-64
2021/03/12 12:09:36;;;;;;;16.77;6.72;;;0.30;54.60;;;;;;5052131;28;20086;-63
2021/03/12 12:12:03;;;;;;;13.40;6.72;;;0.30;54.60;;;;;;5052678;28;20045;-62
2021/03/12 12:14:28;;;;;;;14.35;6.93;;;0.30;54.60;;;;;;5053684;28;20028;-64
2021/03/12 12:16:55;;;;;;;12.32;5.63;;;0.20;54.50;;;;;;5052043;28;20025;-63
2021/03/12 12:19:21;;;;;;;12.70;5.90;;;0.20;54.50;;;;;;5053368;28;20025;-63
2021/03/12 12:21:47;;;;;;;11.18;6.47;;;0.20;54.50;;;;;;5053257;28;20024;-64
2021/03/12 12:24:12;;;;;;;14.73;6.50;;;0.20;54.40;;;;;;5052120;28;20409;-64
2021/03/12 12:26:39;;;;;;;14.80;5.40;;;0.20;54.50;;;;;;5053364;28;20382;-65
2021/03/12 12:29:05;;;;;;;12.55;5.88;;;0.20;54.50;;;;;;5053118;28;20025;-64
2021/03/12 12:31:35;;;;;;;14.05;6.57;;;0.20;54.40;;;;;;5052282;28;20032;-63
2021/03/12 12:34:01;;;;;;;11.45;6.03;;;0.10;54.30;;;;;;5051713;28;20044;-63
2021/03/12 12:36:28;;;;;;;8.90;5.32;;;0.10;54.80;;;;;;5045716;28;20060;-65
2021/03/12 12:38:56;;;;;;;11.10;6.25;;;0.00;55.40;;;;;;5051485;28;20375;-65
2021/03/12 12:41:22;;;;;;;18.80;6.95;;;0.10;55.70;;;;;;5051919;28;20033;-65
2021/03/12 12:43:50;;;;;;;18.17;7.55;;;0.00;56.00;;;;;;5052379;28;20087;-65
2021/03/12 12:46:17;;;;;;;11.82;5.57;;;0.00;56.70;;;;;;5051560;28;20028;-64
2021/03/12 12:48:43;;;;;;;9.40;5.13;;;0.00;57.00;;;;;;5053120;28;20033;-64